Time;durP1;ratioP1;P1;durP2;ratioP2;P2;SDS_P1;SDS_P2;PMS_P1;PMS_P2;Temp;Humidity;BMP_temperature;BMP_pressure;BME280_temperature;BME280_humidity;BME280_pressure;Samples;Min_cycle;Max_cycle;Signal;HPM_P1;HPM_P2
2022/01/28 00:00:32;;;;;;;56.60;6.63;;;6.60;99.90;;;;;;5015765;28;20080;-73
2022/01/28 00:03:04;;;;;;;57.95;8.15;;;6.50;99.90;;;;;;4997198;28;20030;-72
2022/01/28 00:05:31;;;;;;;82.30;7.57;;;6.50;99.90;;;;;;5014056;28;20064;-75
2022/01/28 00:07:56;;;;;;;62.55;7.60;;;6.40;99.90;;;;;;5013899;28;20030;-75
2022/01/28 00:10:24;;;;;;;60.97;6.68;;;6.30;99.90;;;;;;5013590;28;20080;-73
2022/01/28 00:18:35;;;;;;;76.85;7.93;;;6.30;99.90;;;;;;5013878;28;20045;-75
2022/01/28 00:37:48;;;;;;;53.87;6.30;;;6.10;99.90;;;;;;5011150;28;20551;-74
2022/01/28 00:40:11;;;;;;;55.45;6.07;;;6.20;99.90;;;;;;5012484;28;20351;-75
2022/01/28 00:42:36;;;;;;;45.05;5.18;;;6.10;99.90;;;;;;5012656;28;20452;-76
2022/01/28 00:45:02;;;;;;;38.08;5.25;;;6.10;99.90;;;;;;5012501;28;20480;-73
2022/01/28 00:47:28;;;;;;;50.75;6.05;;;6.00;99.90;;;;;;5012622;28;20145;-72
2022/01/28 00:49:53;;;;;;;41.40;5.47;;;6.00;99.90;;;;;;5012928;28;20236;-74
2022/01/28 00:52:19;;;;;;;57.10;5.75;;;6.00;99.90;;;;;;5013141;28;20033;-73
2022/01/28 00:54:44;;;;;;;55.90;6.75;;;6.00;99.90;;;;;;5012917;28;20153;-73
2022/01/28 00:57:10;;;;;;;49.88;6.10;;;6.00;99.90;;;;;;5012414;28;20105;-77
2022/01/28 00:59:35;;;;;;;43.38;5.38;;;6.00;99.90;;;;;;5012646;28;20113;-74
2022/01/28 01:02:01;;;;;;;43.72;5.63;;;6.00;99.90;;;;;;5013463;28;20034;-75
2022/01/28 01:04:26;;;;;;;72.07;6.95;;;5.90;99.90;;;;;;5016365;28;20488;-74
2022/01/28 01:06:52;;;;;;;57.58;6.47;;;5.90;99.90;;;;;;5015847;28;20423;-74
2022/01/28 01:09:17;;;;;;;46.50;5.95;;;5.90;99.90;;;;;;5016143;28;20033;-74
2022/01/28 01:11:43;;;;;;;62.53;7.57;;;5.90;99.90;;;;;;5015982;28;20034;-75
2022/01/28 01:14:08;;;;;;;65.70;6.93;;;5.90;99.90;;;;;;5016173;28;20037;-75
2022/01/28 01:16:47;;;;;;;56.80;7.68;;;5.90;99.90;;;;;;5015807;28;20109;-76
2022/01/28 01:19:17;;;;;;;71.25;7.43;;;5.90;99.90;;;;;;5015972;28;20025;-76
2022/01/28 01:21:43;;;;;;;62.55;7.18;;;5.90;99.90;;;;;;5015812;28;20056;-75
2022/01/28 01:24:18;;;;;;;65.35;7.05;;;5.90;99.90;;;;;;5016438;28;20065;-74
2022/01/28 01:26:44;;;;;;;61.40;6.85;;;5.90;99.90;;;;;;5015578;28;20104;-75
2022/01/28 01:47:12;;;;;;;68.47;6.90;;;5.90;99.90;;;;;;5015798;28;20073;-74
2022/01/28 01:52:05;;;;;;;62.22;7.80;;;6.00;99.90;;;;;;5026336;28;20052;-78
2022/01/28 01:54:40;;;;;;;50.78;6.75;;;6.00;99.90;;;;;;5022689;28;20026;-79
2022/01/28 01:57:07;;;;;;;;;;;6.00;99.90;;;;;;5025739;28;20656;-80
2022/01/28 01:59:33;;;;;;;53.10;6.50;;;6.10;99.90;;;;;;5027708;28;19979;-78
2022/01/28 02:01:59;;;;;;;54.28;6.88;;;6.10;99.90;;;;;;5028088;28;20376;-79
2022/01/28 02:04:25;;;;;;;75.95;8.07;;;6.10;99.90;;;;;;5022741;28;20101;-78
2022/01/28 02:06:51;;;;;;;57.90;7.38;;;6.10;99.90;;;;;;5028222;28;20033;-79
2022/01/28 02:09:17;;;;;;;53.15;6.95;;;6.10;99.90;;;;;;5032738;28;20089;-77
2022/01/28 02:11:43;;;;;;;63.13;6.90;;;6.10;99.90;;;;;;5039805;28;20029;-75
2022/01/28 02:14:09;;;;;;;58.72;7.28;;;6.10;99.90;;;;;;5036843;28;20018;-76
2022/01/28 02:16:35;;;;;;;64.15;7.38;;;6.10;99.90;;;;;;5037308;28;20024;-77
2022/01/28 02:19:01;;;;;;;53.33;6.40;;;6.00;99.90;;;;;;5003013;28;20128;-78
2022/01/28 02:21:27;;;;;;;62.45;6.28;;;6.00;99.90;;;;;;5020345;28;20053;-78
2022/01/28 02:30:36;;;;;;;67.90;7.05;;;6.10;99.90;;;;;;5016349;28;20084;-78
2022/01/28 02:33:12;;;;;;;53.88;6.45;;;6.10;99.90;;;;;;5027954;28;20022;-78
2022/01/28 02:35:40;;;;;;;58.10;6.18;;;6.20;99.90;;;;;;5038258;28;20105;-79
2022/01/28 02:38:07;;;;;;;43.72;5.97;;;6.20;99.90;;;;;;5020930;28;20028;-79
2022/01/28 02:40:33;;;;;;;56.05;5.70;;;6.20;99.90;;;;;;5038663;28;20025;-77
2022/01/28 02:45:44;;;;;;;46.28;6.55;;;6.20;99.90;;;;;;5038207;28;20364;-78
2022/01/28 02:48:17;;;;;;;44.72;6.38;;;6.10;99.90;;;;;;5048553;28;20071;-77
2022/01/28 02:53:37;;;;;;;54.60;5.65;;;6.10;99.90;;;;;;5038847;28;20052;-79
2022/01/28 02:56:11;;;;;;;44.20;5.47;;;6.20;99.90;;;;;;5018808;28;20033;-79
2022/01/28 02:58:37;;;;;;;56.92;6.78;;;6.10;99.90;;;;;;5038453;28;20028;-78
2022/01/28 03:01:03;;;;;;;65.70;6.60;;;6.20;99.90;;;;;;5040435;28;20034;-78
2022/01/28 03:03:28;;;;;;;56.15;7.97;;;6.10;99.90;;;;;;5039958;28;20074;-81
2022/01/28 03:05:54;;;;;;;52.05;6.22;;;6.20;99.90;;;;;;5041142;28;20055;-78
2022/01/28 03:08:24;;;;;;;56.70;6.57;;;6.20;99.90;;;;;;5039979;28;20059;-78
2022/01/28 03:13:57;;;;;;;49.97;6.53;;;6.20;99.90;;;;;;5046501;28;20051;-77
2022/01/28 03:16:21;;;;;;;64.43;6.60;;;6.20;99.90;;;;;;5047259;28;20108;-76
2022/01/28 03:18:54;;;;;;;52.90;6.80;;;6.20;99.90;;;;;;5032308;28;20022;-78
2022/01/28 03:23:45;;;;;;;57.55;6.35;;;6.20;99.90;;;;;;5052510;28;20033;-77
2022/01/28 03:26:11;;;;;;;68.00;7.20;;;6.30;99.90;;;;;;5052818;28;20301;-79
2022/01/28 03:28:37;;;;;;;48.05;6.07;;;6.30;99.90;;;;;;5038469;28;20029;-80
2022/01/28 03:31:02;;;;;;;55.20;6.47;;;6.30;99.90;;;;;;5038705;28;20044;-80
2022/01/28 03:33:28;;;;;;;49.75;7.30;;;6.30;99.90;;;;;;5039832;28;20025;-78
2022/01/28 03:35:53;;;;;;;51.95;6.20;;;6.20;99.90;;;;;;5050877;28;20013;-77
2022/01/28 03:38:19;;;;;;;51.70;6.47;;;6.20;99.90;;;;;;5051770;28;20029;-79
2022/01/28 03:40:46;;;;;;;61.75;6.72;;;6.20;99.90;;;;;;5048674;28;20032;-80
2022/01/28 03:43:12;;;;;;;62.80;7.18;;;6.10;99.90;;;;;;5039563;28;20394;-79
2022/01/28 03:45:38;;;;;;;43.95;6.25;;;6.10;99.90;;;;;;5038404;28;20104;-79
2022/01/28 03:48:04;;;;;;;52.13;5.75;;;6.10;99.90;;;;;;5040296;28;20056;-80
2022/01/28 03:50:34;;;;;;;63.35;7.65;;;6.10;99.90;;;;;;5039288;28;20029;-79
2022/01/28 03:53:05;;;;;;;59.85;6.57;;;6.00;99.90;;;;;;5039241;28;20101;-79
2022/01/28 03:55:31;;;;;;;52.03;7.43;;;6.00;99.90;;;;;;5039141;28;20037;-78
2022/01/28 03:57:57;;;;;;;61.20;6.40;;;6.00;99.90;;;;;;5038424;28;20021;-79
2022/01/28 04:00:28;;;;;;;52.47;6.40;;;5.90;99.90;;;;;;5039061;28;20033;-79
2022/01/28 04:03:23;;;;;;;60.55;7.47;;;5.90;99.90;;;;;;5037486;28;20108;-80
2022/01/28 04:11:37;;;;;;;59.30;8.02;;;6.00;99.90;;;;;;5048393;28;20033;-77
2022/01/28 04:14:15;;;;;;;60.33;6.38;;;6.00;99.90;;;;;;5054760;28;20025;-77
2022/01/28 04:19:25;;;;;;;50.13;6.47;;;6.00;99.90;;;;;;5054940;28;20052;-79
2022/01/28 04:21:50;;;;;;;56.30;7.32;;;6.00;99.90;;;;;;5055893;28;20029;-77
2022/01/28 04:24:16;;;;;;;56.60;6.78;;;6.00;99.90;;;;;;5042571;28;20364;-75
2022/01/28 04:26:42;;;;;;;58.40;6.78;;;6.00;99.90;;;;;;5017903;28;20395;-77
2022/01/28 04:29:08;;;;;;;48.25;6.03;;;6.00;99.90;;;;;;5032927;28;20033;-77
2022/01/28 04:31:35;;;;;;;67.35;7.00;;;5.90;99.90;;;;;;5032766;28;20021;-73
2022/01/28 04:34:02;;;;;;;51.15;6.40;;;5.90;99.90;;;;;;5032663;28;20017;-76
2022/01/28 04:36:33;;;;;;;55.97;6.50;;;5.90;99.90;;;;;;5033250;28;20041;-76
2022/01/28 04:39:09;;;;;;;53.83;6.15;;;5.90;99.90;;;;;;5039987;28;20375;-76
2022/01/28 04:44:08;;;;;;;65.00;7.65;;;5.80;99.90;;;;;;5039624;28;20025;-76
2022/01/28 04:46:51;;;;;;;58.78;6.65;;;5.80;99.90;;;;;;5039901;28;20026;-77
2022/01/28 04:49:24;;;;;;;56.85;6.40;;;5.80;99.90;;;;;;5040129;28;20084;-77
2022/01/28 04:57:17;;;;;;;55.33;5.85;;;5.80;99.90;;;;;;4998385;28;20038;-75
2022/01/28 05:02:52;;;;;;;44.17;7.60;;;5.80;99.90;;;;;;5042357;28;20033;-77
2022/01/28 05:13:21;;;;;;;34.42;4.93;;;5.70;99.90;;;;;;5044708;28;20032;-78
2022/01/28 05:25:00;;;;;;;37.43;5.47;;;5.70;99.90;;;;;;5044493;28;20041;-77
2022/01/28 05:26:40;;;;;;;45.60;5.55;;;5.80;99.90;;;;;;5022921;28;20637;-78
2022/01/28 05:29:05;;;;;;;44.97;6.18;;;5.80;99.90;;;;;;5042120;28;20036;-76
2022/01/28 05:31:31;;;;;;;52.45;6.53;;;5.80;99.90;;;;;;5043982;28;20025;-76
2022/01/28 05:33:57;;;;;;;54.85;6.20;;;5.80;99.90;;;;;;5046118;28;20013;-78
2022/01/28 05:36:22;;;;;;;53.15;6.53;;;5.70;99.90;;;;;;5041942;28;20025;-77
2022/01/28 05:38:48;;;;;;;58.33;7.32;;;5.70;99.90;;;;;;5041328;28;20028;-76
2022/01/28 05:41:14;;;;;;;52.53;6.70;;;5.70;99.90;;;;;;5023768;28;20384;-77
2022/01/28 05:43:39;;;;;;;64.85;8.50;;;5.80;99.90;;;;;;5004801;28;20057;-75
2022/01/28 05:46:05;;;;;;;61.25;6.93;;;5.70;99.90;;;;;;5023385;28;20044;-76
2022/01/28 05:48:30;;;;;;;43.20;5.93;;;5.70;99.90;;;;;;5018794;28;20026;-76
2022/01/28 05:50:56;;;;;;;52.78;5.88;;;5.80;99.90;;;;;;5017014;28;20044;-76
2022/01/28 05:53:22;;;;;;;59.78;6.60;;;5.80;99.90;;;;;;5019367;28;20022;-75
2022/01/28 05:55:48;;;;;;;66.38;7.55;;;5.80;99.90;;;;;;5016236;28;20037;-75
2022/01/28 05:58:13;;;;;;;54.25;7.35;;;5.90;99.90;;;;;;5015581;28;20037;-76
2022/01/28 06:00:39;;;;;;;56.30;5.95;;;5.90;99.90;;;;;;5016335;28;20044;-76
2022/01/28 06:03:04;;;;;;;56.65;6.22;;;5.90;99.90;;;;;;5015792;28;20030;-77
2022/01/28 06:05:30;;;;;;;54.70;6.72;;;5.90;99.90;;;;;;5015658;28;20443;-75
2022/01/28 06:08:00;;;;;;;46.53;6.28;;;6.00;99.90;;;;;;5015940;28;20068;-75
2022/01/28 06:10:26;;;;;;;64.00;7.57;;;6.00;99.90;;;;;;5015689;28;20033;-76
2022/01/28 06:12:52;;;;;;;46.58;6.55;;;5.90;99.90;;;;;;4999013;28;20475;-76
2022/01/28 06:15:18;;;;;;;60.80;6.82;;;6.00;99.90;;;;;;5016642;28;20026;-75
2022/01/28 06:17:44;;;;;;;57.45;6.53;;;6.00;99.90;;;;;;5017051;28;20416;-76
2022/01/28 06:20:13;;;;;;;54.80;6.18;;;6.00;99.90;;;;;;5017315;28;20037;-76
2022/01/28 06:22:40;;;;;;;61.88;7.30;;;6.00;99.90;;;;;;5018382;28;20580;-75
2022/01/28 06:25:08;;;;;;;55.00;6.45;;;6.00;99.90;;;;;;5018057;28;20491;-77
2022/01/28 06:27:34;;;;;;;51.55;5.88;;;6.00;99.90;;;;;;5017456;28;20038;-76
2022/01/28 06:30:00;;;;;;;57.05;8.20;;;5.90;99.90;;;;;;5017577;28;20033;-75
2022/01/28 06:32:25;;;;;;;40.92;6.25;;;5.90;99.90;;;;;;5018493;28;20053;-75
2022/01/28 06:34:51;;;;;;;62.78;6.63;;;6.00;99.90;;;;;;5019503;28;20029;-75
2022/01/28 06:37:16;;;;;;;52.17;6.32;;;6.00;99.90;;;;;;5020912;28;20022;-73
2022/01/28 06:39:42;;;;;;;57.78;7.00;;;6.00;99.90;;;;;;5043117;23;20045;-75
2022/01/28 06:42:08;;;;;;;58.97;6.78;;;6.00;99.90;;;;;;5017202;28;20474;-77
2022/01/28 06:44:34;;;;;;;57.88;6.28;;;6.00;99.90;;;;;;5017759;28;20037;-77
2022/01/28 06:46:59;;;;;;;63.17;6.30;;;6.00;99.90;;;;;;5021729;28;20026;-78
2022/01/28 06:49:25;;;;;;;49.58;6.90;;;5.90;99.90;;;;;;5019544;28;20021;-78
2022/01/28 06:51:50;;;;;;;54.15;6.22;;;6.00;99.90;;;;;;5018236;28;20030;-79
2022/01/28 06:54:16;;;;;;;57.90;6.05;;;6.00;99.90;;;;;;4998605;28;20026;-76
2022/01/28 06:56:42;;;;;;;39.58;6.03;;;;;;;;;;5015892;28;20474;-77
2022/01/28 06:59:08;;;;;;;47.40;6.90;;;;;;;;;;5000529;28;20026;-78
2022/01/28 07:01:33;;;;;;;49.47;5.93;;;6.10;99.90;;;;;;5017584;28;20662;-77
2022/01/28 07:04:00;;;;;;;56.55;6.80;;;6.10;99.90;;;;;;4999968;28;20037;-79
2022/01/28 07:06:26;;;;;;;55.30;6.63;;;6.10;99.90;;;;;;5000153;28;20041;-78
2022/01/28 07:08:52;;;;;;;57.60;6.57;;;5.90;99.90;;;;;;5025641;28;20017;-78
2022/01/28 07:11:17;;;;;;;49.08;6.45;;;6.10;99.90;;;;;;5036094;28;20032;-76
2022/01/28 07:13:43;;;;;;;56.20;6.25;;;6.10;99.90;;;;;;5036287;28;20044;-77
2022/01/28 07:16:09;;;;;;;53.95;6.38;;;6.10;99.90;;;;;;5019960;28;20032;-78
2022/01/28 07:18:35;;;;;;;44.33;6.55;;;6.00;99.90;;;;;;5037019;28;20061;-77
2022/01/28 07:21:01;;;;;;;46.42;5.82;;;6.00;99.90;;;;;;5037599;28;20353;-78
2022/01/28 07:23:26;;;;;;;63.30;7.55;;;6.00;99.90;;;;;;5026204;28;20026;-76
2022/01/28 07:25:52;;;;;;;50.10;7.45;;;5.90;99.90;;;;;;5048143;28;20088;-78
2022/01/28 07:28:18;;;;;;;52.50;7.68;;;5.90;99.90;;;;;;5035678;28;20033;-76
2022/01/28 07:30:43;;;;;;;67.07;7.28;;;5.90;99.90;;;;;;5035347;28;20302;-77
2022/01/28 07:33:10;;;;;;;53.40;6.75;;;5.80;99.90;;;;;;5041565;28;20029;-77
2022/01/28 07:35:36;;;;;;;65.63;6.57;;;5.90;99.90;;;;;;5053064;28;20018;-77
2022/01/28 07:38:02;;;;;;;58.35;6.95;;;5.80;99.90;;;;;;5054547;28;20063;-78
2022/01/28 07:40:28;;;;;;;52.97;6.93;;;5.80;99.90;;;;;;5052925;28;20057;-79
2022/01/28 07:42:54;;;;;;;64.32;6.53;;;5.80;99.90;;;;;;5039063;28;20462;-77
2022/01/28 07:45:20;;;;;;;68.80;7.10;;;5.80;99.90;;;;;;5038670;28;20025;-78
2022/01/28 07:47:45;;;;;;;56.33;7.30;;;5.80;99.90;;;;;;5041994;28;20030;-77
2022/01/28 07:50:13;;;;;;;62.97;7.55;;;5.80;99.90;;;;;;5044750;28;20451;-77
2022/01/28 07:52:38;;;;;;;57.10;7.65;;;5.70;99.90;;;;;;5031331;28;20018;-76
2022/01/28 07:55:06;;;;;;;60.13;8.32;;;5.80;99.90;;;;;;5045628;28;20068;-77
2022/01/28 07:57:31;;;;;;;63.63;8.95;;;5.90;99.90;;;;;;5035095;28;20091;-77
2022/01/28 07:59:57;;;;;;;76.32;9.05;;;6.00;99.90;;;;;;5036084;28;20025;-78
2022/01/28 08:02:23;;;;;;;62.75;7.75;;;6.10;99.90;;;;;;5036756;28;20034;-78
2022/01/28 08:04:49;;;;;;;63.13;8.25;;;6.30;99.90;;;;;;5034980;28;20036;-78
2022/01/28 08:07:14;;;;;;;78.03;9.15;;;6.40;99.90;;;;;;5036258;28;20036;-77
2022/01/28 08:09:40;;;;;;;61.40;7.85;;;6.50;99.90;;;;;;5035073;28;20036;-76
2022/01/28 08:12:06;;;;;;;63.67;7.80;;;6.50;99.90;;;;;;5016341;28;20099;-77
2022/01/28 08:14:31;;;;;;;67.07;8.32;;;6.60;99.90;;;;;;5034195;28;20030;-77
2022/01/28 08:16:58;;;;;;;59.25;7.03;;;6.70;99.90;;;;;;5034751;28;20018;-77
2022/01/28 08:19:23;;;;;;;51.63;6.68;;;6.70;99.90;;;;;;5034587;28;20021;-78
2022/01/28 08:21:49;;;;;;;69.05;8.23;;;6.80;99.90;;;;;;5016869;28;20029;-79
2022/01/28 08:24:15;;;;;;;83.53;8.98;;;6.80;99.90;;;;;;5017645;28;20105;-77
2022/01/28 08:26:40;;;;;;;73.65;8.80;;;6.90;99.90;;;;;;5034107;28;20457;-79
2022/01/28 08:29:06;;;;;;;53.70;7.65;;;7.00;99.90;;;;;;5017368;28;20036;-76
2022/01/28 08:31:32;;;;;;;51.17;6.82;;;7.30;99.90;;;;;;5034854;28;20402;-78
2022/01/28 08:33:58;;;;;;;60.53;7.40;;;7.70;99.90;;;;;;5022624;28;20052;-78
2022/01/28 08:36:24;;;;;;;64.28;8.13;;;8.30;99.90;;;;;;5034862;28;20017;-77
2022/01/28 08:38:53;;;;;;;49.50;6.15;;;8.80;99.90;;;;;;5017658;28;20031;-77
2022/01/28 08:41:19;;;;;;;50.78;6.60;;;9.30;99.90;;;;;;5034526;28;20036;-78
2022/01/28 08:43:44;;;;;;;33.28;5.50;;;9.80;99.90;;;;;;5035683;28;20097;-77
2022/01/28 08:46:11;;;;;;;61.97;7.20;;;10.30;99.90;;;;;;5016382;28;20030;-77
2022/01/28 08:48:37;;;;;;;55.85;7.30;;;10.70;99.90;;;;;;5035531;28;20091;-78
2022/01/28 08:51:03;;;;;;;42.95;7.60;;;11.10;99.90;;;;;;5035799;28;20470;-77
2022/01/28 08:53:28;;;;;;;35.97;6.75;;;11.40;99.90;;;;;;5034888;28;20025;-77
2022/01/28 08:55:54;;;;;;;55.25;7.60;;;11.60;99.90;;;;;;5034350;28;20060;-77
2022/01/28 08:58:19;;;;;;;47.78;7.85;;;11.70;99.90;;;;;;5034809;28;20399;-76
2022/01/28 09:00:48;;;;;;;53.85;7.30;;;11.90;99.90;;;;;;5034719;28;20047;-76
2022/01/28 09:03:16;;;;;;;52.08;7.00;;;11.90;99.90;;;;;;5034149;28;20072;-77
2022/01/28 09:05:42;;;;;;;36.53;6.68;;;12.00;99.90;;;;;;5033694;28;20032;-75
2022/01/28 09:08:13;;;;;;;48.80;7.07;;;12.40;99.90;;;;;;5034279;28;20105;-77
2022/01/28 09:10:43;;;;;;;48.83;7.53;;;12.70;99.90;;;;;;5035949;28;20040;-77
2022/01/28 09:15:37;;;;;;;45.33;7.82;;;13.10;99.90;;;;;;5015293;28;20072;-78
2022/01/28 09:18:04;;;;;;;45.80;7.18;;;13.40;99.90;;;;;;5014858;28;20021;-76
2022/01/28 09:20:32;;;;;;;46.47;7.35;;;13.50;99.90;;;;;;5017030;28;20085;-78
2022/01/28 09:23:00;;;;;;;58.40;7.13;;;13.70;99.90;;;;;;5018647;28;20038;-80
2022/01/28 09:25:26;;;;;;;42.10;5.85;;;13.70;99.90;;;;;;5020222;28;20029;-77
2022/01/28 09:27:52;;;;;;;36.10;6.72;;;14.00;99.90;;;;;;5018756;28;20390;-78
2022/01/28 09:30:18;;;;;;;46.47;7.28;;;14.50;98.20;;;;;;5002299;28;20109;-78
2022/01/28 09:32:44;;;;;;;35.33;6.18;;;14.80;96.70;;;;;;5021538;28;20072;-78
2022/01/28 09:35:09;;;;;;;43.00;7.40;;;15.30;95.30;;;;;;5006078;28;20057;-80
2022/01/28 09:37:35;;;;;;;45.60;6.95;;;15.50;93.50;;;;;;5003583;28;20047;-81
2022/01/28 09:40:02;;;;;;;33.70;6.18;;;15.80;92.00;;;;;;5021973;28;20065;-79
2022/01/28 09:42:31;;;;;;;49.88;7.53;;;16.10;90.30;;;;;;5018925;28;20029;-78
2022/01/28 09:44:59;;;;;;;40.58;6.95;;;16.30;89.90;;;;;;5017601;28;20052;-77
2022/01/28 09:47:24;;;;;;;51.60;7.00;;;16.60;85.10;;;;;;5018960;28;20068;-79
2022/01/28 09:49:51;;;;;;;47.03;6.63;;;16.80;83.10;;;;;;5005054;28;20449;-79
2022/01/28 09:52:18;;;;;;;48.83;7.05;;;16.90;80.50;;;;;;5021341;28;20363;-79
2022/01/28 09:54:46;;;;;;;42.50;6.95;;;16.90;79.60;;;;;;5021736;28;20017;-79
2022/01/28 09:57:16;;;;;;;40.28;6.57;;;17.40;78.30;;;;;;5002174;28;20037;-79
2022/01/28 09:59:42;;;;;;;41.95;6.85;;;17.40;76.20;;;;;;5025122;28;20029;-77
2022/01/28 10:02:08;;;;;;;35.92;6.28;;;17.40;75.50;;;;;;5028631;28;20030;-79
2022/01/28 10:04:34;;;;;;;41.60;6.13;;;17.30;74.40;;;;;;5011819;28;20037;-76
2022/01/28 10:07:15;;;;;;;44.30;7.25;;;17.70;73.70;;;;;;5027175;28;20033;-77
2022/01/28 10:10:06;;;;;;;39.80;9.40;;;18.10;70.30;;;;;;5028088;28;20030;-77
2022/01/28 10:12:40;;;;;;;43.35;7.82;;;18.40;69.10;;;;;;5000851;28;20446;-78
2022/01/28 10:15:17;;;;;;;;;;;18.00;67.40;;;;;;5021742;28;20053;-77
2022/01/28 10:17:53;;;;;;;44.00;6.50;;;17.30;68.20;;;;;;4999803;28;20000;-78
2022/01/28 10:20:21;;;;;;;44.47;7.97;;;16.00;72.80;;;;;;5017911;28;20454;-78
2022/01/28 10:22:51;;;;;;;43.05;7.82;;;15.00;77.50;;;;;;5023028;28;20034;-79
2022/01/28 10:25:35;;;;;;;34.05;6.45;;;14.10;84.90;;;;;;5023244;28;20084;-78
2022/01/28 10:28:06;;;;;;;40.05;6.82;;;13.40;90.40;;;;;;5008353;28;20057;-77
2022/01/28 10:30:36;;;;;;;38.45;6.32;;;12.60;92.70;;;;;;5013655;28;20479;-78
2022/01/28 10:33:16;;;;;;;58.28;21.08;;;12.00;96.20;;;;;;5019404;28;20053;-77
2022/01/28 10:35:56;;;;;;;42.47;10.27;;;11.40;99.60;;;;;;5022408;28;20077;-76
2022/01/28 10:38:33;;;;;;;63.35;11.90;;;11.00;99.90;;;;;;5015117;28;20101;-77
2022/01/28 10:41:17;;;;;;;85.30;19.35;;;10.70;99.90;;;;;;5024431;28;20038;-77
2022/01/28 10:43:54;;;;;;;55.83;12.02;;;10.50;99.90;;;;;;5017489;28;20029;-76
2022/01/28 10:46:27;;;;;;;41.58;7.95;;;10.40;99.90;;;;;;5016461;28;20041;-76
2022/01/28 10:48:58;;;;;;;40.22;6.70;;;10.30;99.90;;;;;;5033552;28;20053;-76
2022/01/28 10:51:36;;;;;;;41.90;6.85;;;10.10;99.90;;;;;;5030964;28;20050;-76
2022/01/28 10:54:07;;;;;;;43.03;7.10;;;9.90;99.90;;;;;;5016315;28;20462;-76
2022/01/28 10:57:00;;;;;;;45.72;6.50;;;9.70;99.90;;;;;;5015439;28;20053;-76
2022/01/28 10:59:28;;;;;;;46.70;5.88;;;9.60;99.90;;;;;;4995601;28;20161;-77
2022/01/28 11:01:54;;;;;;;52.15;6.28;;;9.40;99.90;;;;;;5015895;28;20125;-76
2022/01/28 11:04:21;;;;;;;43.20;6.45;;;9.30;99.90;;;;;;5016337;28;20399;-76
2022/01/28 11:06:48;;;;;;;34.92;5.82;;;9.30;99.90;;;;;;5015047;28;20037;-77
2022/01/28 11:09:16;;;;;;;40.47;5.75;;;9.30;99.90;;;;;;5016073;28;20022;-76
2022/01/28 11:11:42;;;;;;;48.05;6.60;;;9.40;99.90;;;;;;5018123;28;20026;-75
2022/01/28 11:14:08;;;;;;;38.67;6.65;;;9.50;99.90;;;;;;5020514;28;20021;-80
2022/01/28 11:16:35;;;;;;;51.13;7.00;;;9.40;99.90;;;;;;5016990;28;20022;-79
2022/01/28 11:19:01;;;;;;;46.75;6.32;;;9.40;99.90;;;;;;5018841;28;20056;-79
2022/01/28 11:21:46;;;;;;;31.10;5.55;;;9.40;99.90;;;;;;5020102;28;20437;-78
2022/01/28 11:24:35;;;;;;;50.25;5.68;;;9.50;99.90;;;;;;5021593;28;20044;-79
2022/01/28 11:27:10;;;;;;;42.88;6.57;;;9.50;99.90;;;;;;5021394;28;20080;-77
2022/01/28 11:29:36;;;;;;;46.25;6.28;;;9.70;99.90;;;;;;5033065;28;20045;-79
2022/01/28 11:32:17;;;;;;;40.03;4.95;;;9.90;99.90;;;;;;5019493;28;20108;-77
2022/01/28 11:34:54;;;;;;;38.70;5.80;;;10.50;99.90;;;;;;5019052;28;20022;-79
2022/01/28 11:37:29;;;;;;;29.50;5.60;;;11.50;99.90;;;;;;5017190;28;20026;-80
2022/01/28 11:40:05;;;;;;;;;;;13.00;99.90;;;;;;5017452;28;20026;-79
2022/01/28 11:42:31;;;;;;;30.13;5.55;;;14.30;99.80;;;;;;5016121;28;19906;-78
2022/01/28 11:45:03;;;;;;;31.58;5.47;;;15.30;94.90;;;;;;4999655;28;20026;-80
2022/01/28 11:47:41;;;;;;;29.63;5.93;;;16.10;91.70;;;;;;4999801;28;20034;-80
2022/01/28 11:50:18;;;;;;;39.88;7.35;;;16.60;87.60;;;;;;5017826;28;20045;-79
2022/01/28 11:52:52;;;;;;;38.65;5.70;;;16.90;83.60;;;;;;5018493;28;20026;-78
2022/01/28 11:55:18;;;;;;;40.58;6.88;;;17.30;81.60;;;;;;5016124;28;20030;-79
2022/01/28 11:57:58;;;;;;;36.40;7.68;;;17.80;79.30;;;;;;5016907;28;20030;-78
2022/01/28 12:00:32;;;;;;;26.73;5.65;;;18.30;74.10;;;;;;5019625;28;20050;-77
2022/01/28 12:02:58;;;;;;;36.73;5.23;;;19.00;70.40;;;;;;5018248;28;20541;-79
2022/01/28 12:05:29;;;;;;;27.50;5.63;;;19.70;65.10;;;;;;5010002;28;20053;-79
2022/01/28 12:07:56;;;;;;;30.65;5.85;;;19.90;62.30;;;;;;5030777;28;20037;-80
2022/01/28 12:10:25;;;;;;;38.47;5.43;;;20.20;60.20;;;;;;5036979;28;20045;-80
2022/01/28 12:13:03;;;;;;;29.58;5.53;;;20.60;58.90;;;;;;5037759;28;20082;-81
2022/01/28 12:15:31;;;;;;;34.70;6.45;;;20.80;57.50;;;;;;5034959;28;20021;-81
2022/01/28 12:18:11;;;;;;;33.72;5.72;;;20.80;56.80;;;;;;5020048;28;20025;-78
2022/01/28 12:20:43;;;;;;;31.15;5.72;;;;;;;;;;5026817;28;20025;-78
2022/01/28 12:23:09;;;;;;;28.83;5.93;;;21.50;55.50;;;;;;5002108;28;20030;-78
2022/01/28 12:25:40;;;;;;;43.20;5.85;;;21.80;54.20;;;;;;5016343;28;20097;-78
2022/01/28 12:28:18;;;;;;;35.35;6.95;;;21.80;53.10;;;;;;5015394;28;20030;-78
2022/01/28 12:30:48;;;;;;;27.60;6.60;;;21.20;52.80;;;;;;5016763;28;20037;-78
2022/01/28 12:33:22;;;;;;;32.28;6.70;;;21.20;54.00;;;;;;5015777;28;20364;-79
2022/01/28 12:35:51;;;;;;;31.58;5.35;;;21.60;53.90;;;;;;5015574;28;20471;-78
2022/01/28 12:38:22;;;;;;;36.05;6.20;;;22.30;52.70;;;;;;5014570;28;20069;-78
2022/01/28 12:40:52;;;;;;;32.13;6.07;;;22.50;52.00;;;;;;5029001;22;20038;-76
2022/01/28 12:43:25;;;;;;;36.88;6.60;;;22.40;51.00;;;;;;5015743;28;20482;-76
2022/01/28 12:46:04;;;;;;;34.33;6.28;;;22.20;50.80;;;;;;5016450;28;20034;-76
2022/01/28 12:48:30;;;;;;;28.88;6.10;;;22.30;50.40;;;;;;5002575;28;20033;-77
2022/01/28 12:50:57;;;;;;;29.25;5.75;;;22.30;50.20;;;;;;5018122;28;20569;-78
2022/01/28 12:53:48;;;;;;;28.38;6.22;;;22.30;50.60;;;;;;5018617;28;20495;-75
2022/01/28 12:56:17;;;;;;;32.13;6.28;;;22.20;50.40;;;;;;5008206;28;20068;-77
2022/01/28 12:58:49;;;;;;;34.42;6.80;;;22.00;50.90;;;;;;5016546;28;20017;-76
2022/01/28 13:01:17;;;;;;;37.85;7.63;;;21.80;51.20;;;;;;5019823;28;20074;-76
2022/01/28 13:06:39;;;;;;;32.72;7.15;;;19.10;54.60;;;;;;5018110;28;20386;-77
2022/01/28 13:09:15;;;;;;;29.65;6.07;;;18.50;57.80;;;;;;5001818;28;20119;-77
2022/01/28 13:11:45;;;;;;;38.40;6.68;;;18.50;58.60;;;;;;5019216;28;20049;-77
2022/01/28 13:14:12;;;;;;;39.17;6.95;;;18.30;59.00;;;;;;5018218;28;20037;-75
2022/01/28 13:16:42;;;;;;;44.05;7.57;;;18.10;60.70;;;;;;5018412;28;20037;-77
2022/01/28 13:19:09;;;;;;;30.88;6.00;;;18.10;61.10;;;;;;5018191;28;20054;-76
2022/01/28 13:21:35;;;;;;;28.75;6.25;;;18.50;61.60;;;;;;5017974;28;20026;-76
2022/01/28 13:24:19;;;;;;;43.08;7.30;;;18.90;60.60;;;;;;5018244;28;20047;-76
2022/01/28 13:26:55;;;;;;;47.45;7.80;;;19.50;59.00;;;;;;5019945;28;20515;-77
2022/01/28 13:29:32;;;;;;;37.92;7.15;;;19.60;58.60;;;;;;5020319;28;20034;-77
2022/01/28 13:31:59;;;;;;;43.47;6.78;;;19.50;58.00;;;;;;5003322;28;20026;-78
2022/01/28 13:34:25;;;;;;;34.35;6.47;;;19.40;58.10;;;;;;5019394;28;20467;-76
2022/01/28 13:36:53;;;;;;;31.48;7.63;;;18.90;58.50;;;;;;5018348;28;20045;-76
2022/01/28 13:39:21;;;;;;;37.30;6.70;;;18.20;59.70;;;;;;5020387;28;20026;-76
2022/01/28 13:41:51;;;;;;;33.53;6.70;;;17.70;61.40;;;;;;5003933;28;20041;-77
2022/01/28 13:44:27;;;;;;;52.65;8.60;;;;;;;;;;5003710;28;20110;-76
2022/01/28 13:46:57;;;;;;;35.60;6.53;;;16.00;66.80;;;;;;5002644;28;20113;-76
2022/01/28 13:49:34;;;;;;;41.80;7.32;;;15.50;69.60;;;;;;5019955;28;20033;-77
2022/01/28 13:52:12;;;;;;;43.38;6.47;;;15.00;75.40;;;;;;5023113;28;20136;-77
2022/01/28 13:54:38;;;;;;;37.47;6.75;;;14.30;78.20;;;;;;5026196;28;20033;-75
2022/01/28 13:57:06;;;;;;;41.03;7.57;;;13.80;83.70;;;;;;5024793;28;20025;-75
2022/01/28 13:59:33;;;;;;;40.92;6.10;;;13.30;87.60;;;;;;5018536;28;20026;-76
2022/01/28 14:02:01;;;;;;;45.28;7.68;;;13.20;88.50;;;;;;5019511;28;20026;-76
2022/01/28 14:04:37;;;;;;;46.05;6.15;;;12.90;91.40;;;;;;5018793;28;20464;-77
2022/01/28 14:07:16;;;;;;;38.10;6.32;;;12.70;92.90;;;;;;5021073;28;20032;-76
2022/01/28 14:09:54;;;;;;;51.20;7.38;;;12.40;95.20;;;;;;5015614;28;20060;-74
2022/01/28 14:12:47;;;;;;;95.90;31.25;;;11.80;97.90;;;;;;4986752;28;20083;-76
2022/01/28 14:15:32;;;;;;;45.47;7.43;;;11.50;99.90;;;;;;5038018;28;20038;-76
2022/01/28 14:18:01;;;;;;;39.92;6.25;;;11.40;99.90;;;;;;5039728;28;20025;-77
2022/01/28 14:20:27;;;;;;;43.25;6.35;;;11.30;99.90;;;;;;5021660;28;20064;-76
2022/01/28 14:22:53;;;;;;;49.83;6.80;;;11.20;99.90;;;;;;5019451;28;20402;-75
2022/01/28 14:25:20;;;;;;;52.78;8.45;;;11.20;99.90;;;;;;5018548;28;20048;-74
2022/01/28 14:27:59;;;;;;;65.75;9.15;;;10.90;99.90;;;;;;5036519;28;20032;-76
2022/01/28 14:30:36;;;;;;;50.70;8.13;;;10.90;99.90;;;;;;5018870;28;20051;-75
2022/01/28 14:33:02;;;;;;;48.08;6.75;;;11.00;99.90;;;;;;5036648;28;20021;-77
2022/01/28 14:35:27;;;;;;;42.35;7.10;;;11.20;99.90;;;;;;5035554;28;20017;-76